createdAt,value
2018-03-14T00:00:29.549Z,16.2
2018-03-14T00:01:18.724Z,16.2
2018-03-14T00:02:08.602Z,16.2
2018-03-14T00:02:59.637Z,16.2
2018-03-14T00:03:51.342Z,16.2
2018-03-14T00:04:39.140Z,16.3
2018-03-14T00:05:29.936Z,16.3
2018-03-14T00:06:19.149Z,16.2
2018-03-14T00:07:09.739Z,16.3
2018-03-14T00:07:59.373Z,16.3
2018-03-14T00:08:49.948Z,16.3
2018-03-14T00:09:39.273Z,16.3
2018-03-14T00:10:29.769Z,16.3
2018-03-14T00:11:19.329Z,16.3
2018-03-14T00:12:09.746Z,16.3
2018-03-14T00:13:03.218Z,16.3
2018-03-14T00:13:50.253Z,16.3
2018-03-14T00:14:40.250Z,16.3
2018-03-14T00:15:30.228Z,16.3
2018-03-14T00:16:19.732Z,16.3
2018-03-14T00:17:09.810Z,16.3
2018-03-14T00:17:59.928Z,16.3
2018-03-14T00:18:49.750Z,16.3
2018-03-14T00:19:41.011Z,16.3
2018-03-14T00:20:30.780Z,16.3
2018-03-14T00:21:20.460Z,16.3
2018-03-14T00:22:12.124Z,16.3
2018-03-14T00:23:01.165Z,16.3
2018-03-14T00:23:50.929Z,16.3
2018-03-14T00:24:41.074Z,16.3
2018-03-14T00:25:30.631Z,16.3
2018-03-14T00:26:20.612Z,16.3
2018-03-14T00:27:11.484Z,16.3
2018-03-14T00:28:01.626Z,16.3
2018-03-14T00:28:50.987Z,16.3
2018-03-14T00:29:41.245Z,16.3
2018-03-14T00:30:31.549Z,16.3
2018-03-14T00:31:21.036Z,16.3
2018-03-14T00:32:12.140Z,16.3
2018-03-14T00:33:01.092Z,16.3
2018-03-14T00:33:51.947Z,16.3
2018-03-14T00:34:42.242Z,16.3
2018-03-14T00:35:31.819Z,16.3
2018-03-14T00:36:22.479Z,16.3
2018-03-14T00:37:11.281Z,16.3
2018-03-14T00:38:01.959Z,16.3
2018-03-14T00:38:51.762Z,16.3
2018-03-14T00:39:41.779Z,16.3
2018-03-14T00:40:33.906Z,16.3
2018-03-14T00:41:22.811Z,16.3
2018-03-14T00:42:12.874Z,16.3
2018-03-14T00:43:02.653Z,16.3
2018-03-14T00:43:56.111Z,16.3
2018-03-14T00:44:43.341Z,16.3
2018-03-14T00:45:32.794Z,16.3
2018-03-14T00:46:23.087Z,16.3
2018-03-14T00:47:13.436Z,16.3
2018-03-14T00:48:03.501Z,16.3
2018-03-14T00:48:53.563Z,16.3
2018-03-14T00:49:45.189Z,16.3
2018-03-14T00:50:33.660Z,16.3
2018-03-14T00:51:24.371Z,16.3
2018-03-14T00:52:14.351Z,16.3
2018-03-14T00:53:08.667Z,16.3
2018-03-14T00:53:54.496Z,16.3
2018-03-14T00:54:44.337Z,16.3
2018-03-14T00:55:34.307Z,16.3
2018-03-14T00:56:24.070Z,16.3
2018-03-14T00:57:14.453Z,16.3
2018-03-14T00:58:03.396Z,16.3
2018-03-14T00:58:53.780Z,16.3
2018-03-14T00:59:44.422Z,16.3
2018-03-14T01:00:33.774Z,16.3
2018-03-14T01:01:24.423Z,16.3
2018-03-14T01:02:13.563Z,16.3
2018-03-14T01:03:04.655Z,16.4
2018-03-14T01:03:55.211Z,16.3
2018-03-14T01:04:43.163Z,16.3
2018-03-14T01:05:34.250Z,16.4
2018-03-14T01:06:24.323Z,16.3
2018-03-14T01:07:14.064Z,16.4
2018-03-14T01:08:03.398Z,16.4
2018-03-14T01:08:53.954Z,16.4
2018-03-14T01:09:43.727Z,16.4
2018-03-14T01:10:34.967Z,16.4
2018-03-14T01:11:23.535Z,16.4
2018-03-14T01:12:13.949Z,16.4
2018-03-14T01:13:03.958Z,16.4
2018-03-14T01:13:54.211Z,16.4
2018-03-14T01:14:44.101Z,16.4
2018-03-14T01:15:34.775Z,16.4
2018-03-14T01:16:25.101Z,16.4
2018-03-14T01:17:15.626Z,16.4
2018-03-14T01:18:03.991Z,16.4
2018-03-14T01:18:54.995Z,16.4
2018-03-14T01:19:44.824Z,16.4
2018-03-14T01:20:34.420Z,16.4
2018-03-14T01:21:25.960Z,16.4
2018-03-14T01:22:14.737Z,16.4
2018-03-14T01:23:04.721Z,16.4
2018-03-14T01:23:55.559Z,16.4
2018-03-14T01:24:44.389Z,16.4
2018-03-14T01:25:35.411Z,16.4
2018-03-14T01:26:25.854Z,16.4
2018-03-14T01:27:15.215Z,16.4
2018-03-14T01:28:05.022Z,16.4
2018-03-14T01:28:55.186Z,16.4
2018-03-14T01:29:46.084Z,16.4
2018-03-14T01:30:35.234Z,16.4
2018-03-14T01:31:26.658Z,16.4
2018-03-14T01:32:16.483Z,16.4
2018-03-14T01:33:05.932Z,16.4
2018-03-14T01:33:55.765Z,16.4
2018-03-14T01:34:45.813Z,16.4
2018-03-14T01:35:37.782Z,16.4
2018-03-14T01:36:25.371Z,16.4
2018-03-14T01:37:14.890Z,16.4
2018-03-14T01:38:05.803Z,16.4
2018-03-14T01:38:56.326Z,16.4
2018-03-14T01:39:46.426Z,16.4
2018-03-14T01:40:36.456Z,16.4
2018-03-14T01:41:26.703Z,16.4
2018-03-14T01:42:16.230Z,16.4
2018-03-14T01:43:05.992Z,16.4
2018-03-14T01:43:56.989Z,16.4
2018-03-14T01:44:47.743Z,16.4
2018-03-14T01:45:36.509Z,16.4
2018-03-14T01:46:27.164Z,16.4
2018-03-14T01:47:16.942Z,16.4
2018-03-14T01:48:09.275Z,16.4
2018-03-14T01:48:56.682Z,16.4
2018-03-14T01:49:47.740Z,16.4
2018-03-14T01:50:36.445Z,16.4
2018-03-14T01:51:27.112Z,16.4
2018-03-14T01:52:17.102Z,16.4
2018-03-14T01:53:06.762Z,16.4
2018-03-14T01:53:58.389Z,16.4
2018-03-14T01:54:47.465Z,16.4
2018-03-14T01:55:37.162Z,16.4
2018-03-14T01:56:27.458Z,16.4
2018-03-14T01:57:17.055Z,16.4
2018-03-14T01:58:08.004Z,16.4
2018-03-14T01:58:58.519Z,16.4
2018-03-14T01:59:47.689Z,16.4
2018-03-14T02:00:38.492Z,16.4
2018-03-14T02:01:27.546Z,16.4
2018-03-14T02:02:17.219Z,16.4
2018-03-14T02:03:09.052Z,16.4
2018-03-14T02:03:57.813Z,16.4
2018-03-14T02:04:47.591Z,16.4
2018-03-14T02:05:37.931Z,16.4
2018-03-14T02:06:28.216Z,16.5
2018-03-14T02:07:18.448Z,16.4
2018-03-14T02:08:08.001Z,16.5
2018-03-14T02:08:57.379Z,16.4
2018-03-14T02:09:48.296Z,16.5
2018-03-14T02:10:38.689Z,16.4
2018-03-14T02:11:28.559Z,16.5
2018-03-14T02:12:22.204Z,16.5
2018-03-14T02:13:08.496Z,16.5
2018-03-14T02:13:58.644Z,16.5
2018-03-14T02:14:49.219Z,16.4
2018-03-14T02:15:38.676Z,16.4
2018-03-14T02:16:28.836Z,16.5
2018-03-14T02:17:18.880Z,16.5
2018-03-14T02:18:10.203Z,16.5
2018-03-14T02:18:59.239Z,16.4
2018-03-14T02:19:49.478Z,16.5
2018-03-14T02:20:39.642Z,16.5
2018-03-14T02:21:31.188Z,16.5
2018-03-14T02:22:18.932Z,16.5
2018-03-14T02:23:08.463Z,16.5
2018-03-14T02:23:59.674Z,16.4
2018-03-14T02:24:49.633Z,16.4
2018-03-14T02:25:40.111Z,16.5
2018-03-14T02:26:29.772Z,16.5
2018-03-14T02:27:22.252Z,16.5
2018-03-14T02:28:10.503Z,16.5
2018-03-14T02:28:59.967Z,16.5
2018-03-14T02:29:50.611Z,16.5
2018-03-14T02:30:44.975Z,16.4
2018-03-14T02:31:31.537Z,16.5
2018-03-14T02:32:21.602Z,16.5
2018-03-14T02:33:11.361Z,16.5
2018-03-14T02:34:01.153Z,16.5
2018-03-14T02:34:51.135Z,16.5
2018-03-14T02:35:41.785Z,16.5
2018-03-14T02:36:34.695Z,16.5
2018-03-14T02:37:21.942Z,16.5
2018-03-14T02:38:11.743Z,16.5
2018-03-14T02:39:02.057Z,16.5
2018-03-14T02:39:52.727Z,16.5
2018-03-14T02:40:42.212Z,16.5
2018-03-14T02:41:31.442Z,16.5
2018-03-14T02:42:20.377Z,16.5
2018-03-14T02:43:10.934Z,16.5
2018-03-14T02:44:00.588Z,16.5
2018-03-14T02:44:51.025Z,16.5
2018-03-14T02:45:41.279Z,16.5
2018-03-14T02:46:30.872Z,16.5
2018-03-14T02:47:21.510Z,16.5
2018-03-14T02:48:11.300Z,16.5
2018-03-14T02:49:00.860Z,16.5
2018-03-14T02:49:51.275Z,16.6
2018-03-14T02:50:41.277Z,16.5
2018-03-14T02:51:30.836Z,16.5
2018-03-14T02:52:22.361Z,16.5
2018-03-14T02:53:12.681Z,16.6
2018-03-14T02:54:02.184Z,16.5
2018-03-14T02:54:51.646Z,16.5
2018-03-14T02:55:42.278Z,16.6
2018-03-14T02:56:31.848Z,16.5
2018-03-14T02:57:23.249Z,16.6
2018-03-14T02:58:12.141Z,16.5
2018-03-14T02:59:02.809Z,16.6
2018-03-14T02:59:52.091Z,16.5
2018-03-14T03:00:42.978Z,16.6
2018-03-14T03:01:31.734Z,16.6
2018-03-14T03:02:22.386Z,16.5
2018-03-14T03:03:12.373Z,16.6
2018-03-14T03:04:02.701Z,16.6
2018-03-14T03:04:52.671Z,16.6
2018-03-14T03:05:42.738Z,16.5
2018-03-14T03:06:32.396Z,16.6
2018-03-14T03:07:22.913Z,16.6
2018-03-14T03:08:12.418Z,16.6
2018-03-14T03:09:03.125Z,16.6
2018-03-14T03:09:52.800Z,16.6
2018-03-14T03:10:43.083Z,16.6
2018-03-14T03:11:32.850Z,16.6
2018-03-14T03:12:23.098Z,16.6
2018-03-14T03:13:13.053Z,16.6
2018-03-14T03:14:03.281Z,16.6
2018-03-14T03:14:53.355Z,16.6
2018-03-14T03:15:43.555Z,16.6
2018-03-14T03:16:33.585Z,16.6
2018-03-14T03:17:24.038Z,16.6
2018-03-14T03:18:13.143Z,16.6
2018-03-14T03:19:03.769Z,16.6
2018-03-14T03:19:54.610Z,16.6
2018-03-14T03:20:44.437Z,16.6
2018-03-14T03:21:34.148Z,16.6
2018-03-14T03:22:23.523Z,16.6
2018-03-14T03:23:14.322Z,16.6
2018-03-14T03:24:04.125Z,16.6
2018-03-14T03:24:54.101Z,16.6
2018-03-14T03:25:44.995Z,16.6
2018-03-14T03:26:33.812Z,16.6
2018-03-14T03:27:24.205Z,16.6
2018-03-14T03:28:14.980Z,16.6
2018-03-14T03:29:03.552Z,16.6
2018-03-14T03:29:54.964Z,16.6
2018-03-14T03:30:45.148Z,16.6
2018-03-14T03:31:34.789Z,16.6
2018-03-14T03:32:25.112Z,16.6
2018-03-14T03:33:14.219Z,16.6
2018-03-14T03:34:05.052Z,16.6
2018-03-14T03:34:54.332Z,16.6
2018-03-14T03:35:44.899Z,16.6
2018-03-14T03:36:35.245Z,16.6
2018-03-14T03:37:24.984Z,16.6
2018-03-14T03:38:14.847Z,16.6
2018-03-14T03:39:04.926Z,16.6
2018-03-14T03:39:54.985Z,16.6
2018-03-14T03:40:45.231Z,16.6
2018-03-14T03:41:36.146Z,16.6
2018-03-14T03:42:25.930Z,16.6
2018-03-14T03:43:15.736Z,16.6
2018-03-14T03:44:05.764Z,16.6
2018-03-14T03:44:55.358Z,16.6
2018-03-14T03:45:45.280Z,16.6
2018-03-14T03:46:34.891Z,16.6
2018-03-14T03:47:25.244Z,16.6
2018-03-14T03:48:15.076Z,16.6
2018-03-14T03:49:05.724Z,16.6
2018-03-14T03:49:56.206Z,16.6
2018-03-14T03:50:46.347Z,16.6
2018-03-14T03:51:36.724Z,16.6
2018-03-14T03:52:26.078Z,16.6
2018-03-14T03:53:15.369Z,16.6
2018-03-14T03:54:05.902Z,16.6
2018-03-14T03:54:56.865Z,16.6
2018-03-14T03:55:46.241Z,16.6
2018-03-14T03:56:36.478Z,16.6
2018-03-14T03:57:26.155Z,16.6
2018-03-14T03:58:16.579Z,16.6
2018-03-14T03:59:06.369Z,16.6
2018-03-14T03:59:56.330Z,16.6
2018-03-14T04:00:47.495Z,16.6
2018-03-14T04:01:35.952Z,16.6
2018-03-14T04:02:26.340Z,16.6
2018-03-14T04:03:17.237Z,16.6
2018-03-14T04:04:07.304Z,16.6
2018-03-14T04:04:56.892Z,16.6
2018-03-14T04:05:47.129Z,16.6
2018-03-14T04:06:37.413Z,16.6
2018-03-14T04:07:27.565Z,16.6
2018-03-14T04:08:17.915Z,16.6
2018-03-14T04:09:07.270Z,16.6
2018-03-14T04:09:57.925Z,16.6
2018-03-14T04:10:47.682Z,16.6
2018-03-14T04:11:37.153Z,16.6
2018-03-14T04:12:27.742Z,16.6
2018-03-14T04:13:17.090Z,16.7
2018-03-14T04:14:07.427Z,16.7
2018-03-14T04:14:57.645Z,16.7
2018-03-14T04:15:47.991Z,16.7
2018-03-14T04:16:37.928Z,16.7
2018-03-14T04:17:27.583Z,16.8
2018-03-14T04:18:19.061Z,16.8
2018-03-14T04:19:09.162Z,16.8
2018-03-14T04:19:58.932Z,16.8
2018-03-14T04:20:48.666Z,16.8
2018-03-14T04:21:39.006Z,16.8
2018-03-14T04:22:28.836Z,16.8
2018-03-14T04:23:19.396Z,16.8
2018-03-14T04:24:09.476Z,16.8
2018-03-14T04:24:59.304Z,16.8
2018-03-14T04:25:49.419Z,16.8
2018-03-14T04:26:38.506Z,16.8
2018-03-14T04:27:29.430Z,16.8
2018-03-14T04:28:19.742Z,16.8
2018-03-14T04:29:09.283Z,16.8
2018-03-14T04:29:59.603Z,16.8
2018-03-14T04:30:49.087Z,16.8
2018-03-14T04:31:39.381Z,16.8
2018-03-14T04:32:29.786Z,16.8
2018-03-14T04:33:19.608Z,16.8
2018-03-14T04:34:09.913Z,16.8
2018-03-14T04:34:59.948Z,16.8
2018-03-14T04:35:49.750Z,16.8
2018-03-14T04:36:40.362Z,16.8
2018-03-14T04:37:30.438Z,16.8
2018-03-14T04:38:19.989Z,16.8
2018-03-14T04:39:10.566Z,16.8
2018-03-14T04:39:59.784Z,16.8
2018-03-14T04:40:50.418Z,16.8
2018-03-14T04:41:40.208Z,16.8
2018-03-14T04:42:30.505Z,16.8
2018-03-14T04:43:20.852Z,16.8
2018-03-14T04:44:10.325Z,16.8
2018-03-14T04:45:00.675Z,16.8
2018-03-14T04:45:50.761Z,16.8
2018-03-14T04:46:40.790Z,16.8
2018-03-14T04:47:31.160Z,16.8
2018-03-14T04:48:20.902Z,16.8
2018-03-14T04:49:10.432Z,16.8
2018-03-14T04:50:00.470Z,16.8
2018-03-14T04:50:49.855Z,16.8
2018-03-14T04:51:40.249Z,16.8
2018-03-14T04:52:31.041Z,16.8
2018-03-14T04:53:20.047Z,16.8
2018-03-14T04:54:10.596Z,16.8
2018-03-14T04:55:00.842Z,16.8
2018-03-14T04:55:51.017Z,16.8
2018-03-14T04:56:40.893Z,16.8
2018-03-14T04:57:30.658Z,16.8
2018-03-14T04:58:21.369Z,16.8
2018-03-14T04:59:10.889Z,16.8
2018-03-14T05:00:01.219Z,16.8
2018-03-14T05:00:51.591Z,16.8
2018-03-14T05:01:40.765Z,16.8
2018-03-14T05:02:31.672Z,16.8
2018-03-14T05:03:20.775Z,16.8
2018-03-14T05:04:11.624Z,16.8
2018-03-14T05:05:01.903Z,16.8
2018-03-14T05:05:52.193Z,16.8
2018-03-14T05:06:41.232Z,16.8
2018-03-14T05:07:31.164Z,16.8
2018-03-14T05:08:21.904Z,16.8
2018-03-14T05:09:11.564Z,16.8
2018-03-14T05:10:01.935Z,16.8
2018-03-14T05:10:52.596Z,16.8
2018-03-14T05:11:41.902Z,16.8
2018-03-14T05:12:31.624Z,16.8
2018-03-14T05:13:22.061Z,16.8
2018-03-14T05:14:12.416Z,16.8
2018-03-14T05:15:16.918Z,16.8
2018-03-14T05:15:52.151Z,16.8
2018-03-14T05:16:42.431Z,16.8
2018-03-14T05:17:31.973Z,16.8
2018-03-14T05:18:21.623Z,16.8
2018-03-14T05:19:12.683Z,16.8
2018-03-14T05:20:01.879Z,16.8
2018-03-14T05:20:52.042Z,16.8
2018-03-14T05:21:42.557Z,16.8
2018-03-14T05:22:32.118Z,16.8
2018-03-14T05:23:22.615Z,16.8
2018-03-14T05:24:12.461Z,16.8
2018-03-14T05:25:02.547Z,16.8
2018-03-14T05:25:52.900Z,16.8
2018-03-14T05:26:42.983Z,16.8
2018-03-14T05:27:32.327Z,16.8
2018-03-14T05:28:22.775Z,16.8
2018-03-14T05:29:12.818Z,16.8
2018-03-14T05:30:03.962Z,16.8
2018-03-14T05:30:53.489Z,16.8
2018-03-14T05:31:43.504Z,16.8
2018-03-14T05:32:32.669Z,16.8
2018-03-14T05:33:23.199Z,16.8
2018-03-14T05:34:12.399Z,16.8
2018-03-14T05:35:02.924Z,16.8
2018-03-14T05:35:53.183Z,16.8
2018-03-14T05:36:43.596Z,16.8
2018-03-14T05:37:33.711Z,16.8
2018-03-14T05:38:23.498Z,16.9
2018-03-14T05:39:13.856Z,16.8
2018-03-14T05:40:03.486Z,16.8
2018-03-14T05:40:53.869Z,16.8
2018-03-14T05:41:44.868Z,16.8
2018-03-14T05:42:34.337Z,16.8
2018-03-14T05:43:23.131Z,16.8
2018-03-14T05:44:13.916Z,16.8
2018-03-14T05:45:04.257Z,16.8
2018-03-14T05:45:54.495Z,16.8
2018-03-14T05:46:44.375Z,16.9
2018-03-14T05:47:34.010Z,16.9
2018-03-14T05:48:24.281Z,16.8
2018-03-14T05:49:14.741Z,16.8
2018-03-14T05:50:04.044Z,16.8
2018-03-14T05:50:54.555Z,16.8
2018-03-14T05:51:45.492Z,16.8
2018-03-14T05:52:34.085Z,16.9
2018-03-14T05:53:25.111Z,16.9
2018-03-14T05:54:15.413Z,16.9
2018-03-14T05:55:04.965Z,16.9
2018-03-14T05:55:55.105Z,16.9
2018-03-14T05:56:44.782Z,16.9
2018-03-14T05:57:35.407Z,16.9
2018-03-14T05:58:25.978Z,16.8
2018-03-14T05:59:15.348Z,16.9
2018-03-14T06:00:05.316Z,16.9
2018-03-14T06:00:54.792Z,16.9
2018-03-14T06:01:45.313Z,16.9
2018-03-14T06:02:36.290Z,16.9
2018-03-14T06:03:25.152Z,16.9
2018-03-14T06:04:16.136Z,16.9
2018-03-14T06:05:05.696Z,16.9
2018-03-14T06:05:55.241Z,16.9
2018-03-14T06:06:45.401Z,16.9
2018-03-14T06:07:35.909Z,16.9
2018-03-14T06:08:26.653Z,16.9
2018-03-14T06:09:15.985Z,16.9
2018-03-14T06:10:05.657Z,16.9
2018-03-14T06:10:55.973Z,16.9
2018-03-14T06:11:45.959Z,16.9
2018-03-14T06:12:36.118Z,16.9
2018-03-14T06:13:25.864Z,16.9
2018-03-14T06:14:16.216Z,16.9
2018-03-14T06:15:05.409Z,16.9
2018-03-14T06:15:55.456Z,16.9
2018-03-14T06:16:46.674Z,16.9
2018-03-14T06:17:37.068Z,16.9
2018-03-14T06:18:26.011Z,16.9
2018-03-14T06:19:17.051Z,16.9
2018-03-14T06:20:06.734Z,16.9
2018-03-14T06:20:56.683Z,16.9
2018-03-14T06:21:46.759Z,16.9
2018-03-14T06:22:36.233Z,16.9
2018-03-14T06:23:26.767Z,16.9
2018-03-14T06:24:17.108Z,16.9
2018-03-14T06:25:06.416Z,16.9
2018-03-14T06:25:57.340Z,16.9
2018-03-14T06:26:47.326Z,16.9
2018-03-14T06:27:38.029Z,16.9
2018-03-14T06:28:27.841Z,16.9
2018-03-14T06:29:16.696Z,16.9
2018-03-14T06:30:07.143Z,16.9
2018-03-14T06:30:57.783Z,16.9
2018-03-14T06:31:47.276Z,16.9
2018-03-14T06:32:37.839Z,16.9
2018-03-14T06:33:27.405Z,16.9
2018-03-14T06:34:17.350Z,16.9
2018-03-14T06:35:07.418Z,16.9
2018-03-14T06:35:57.873Z,16.9
2018-03-14T06:36:47.970Z,16.9
2018-03-14T06:37:37.785Z,16.9
2018-03-14T06:38:27.400Z,16.9
2018-03-14T06:39:18.208Z,16.9
2018-03-14T06:40:07.576Z,16.9
2018-03-14T06:40:58.987Z,16.9
2018-03-14T06:41:47.878Z,16.9
2018-03-14T06:42:37.830Z,16.9
2018-03-14T06:43:27.912Z,16.9
2018-03-14T06:44:17.809Z,16.9
2018-03-14T06:45:08.237Z,16.9
2018-03-14T06:45:59.125Z,16.9
2018-03-14T06:46:47.872Z,16.9
2018-03-14T06:47:38.297Z,16.9
2018-03-14T06:48:29.042Z,16.9
2018-03-14T06:49:18.817Z,16.9
2018-03-14T06:50:08.781Z,16.9
2018-03-14T06:50:58.880Z,16.9
2018-03-14T06:51:48.701Z,16.9
2018-03-14T06:52:37.304Z,16.9
2018-03-14T06:53:29.595Z,16.9
2018-03-14T06:54:19.187Z,16.9
2018-03-14T06:55:09.402Z,16.9
2018-03-14T06:55:59.374Z,16.9
2018-03-14T06:56:49.551Z,16.9
2018-03-14T06:57:39.622Z,16.9
2018-03-14T06:58:28.964Z,16.9
2018-03-14T06:59:18.750Z,16.9
2018-03-14T07:00:09.196Z,16.9
2018-03-14T07:01:00.142Z,16.9
2018-03-14T07:01:49.911Z,16.9
2018-03-14T07:02:38.784Z,16.9
2018-03-14T07:03:30.088Z,16.9
2018-03-14T07:04:19.214Z,16.9
2018-03-14T07:05:10.769Z,16.9
2018-03-14T07:06:01.069Z,16.9
2018-03-14T07:06:50.526Z,16.9
2018-03-14T07:07:40.871Z,16.9
2018-03-14T07:08:31.189Z,16.9
2018-03-14T07:09:20.703Z,16.9
2018-03-14T07:10:11.021Z,16.9
2018-03-14T07:11:01.119Z,16.9
2018-03-14T07:11:50.893Z,16.9
2018-03-14T07:12:41.477Z,16.9
2018-03-14T07:13:31.305Z,16.9
2018-03-14T07:14:21.071Z,16.9
2018-03-14T07:15:11.395Z,16.9
2018-03-14T07:16:01.179Z,16.9
2018-03-14T07:16:51.792Z,16.9
2018-03-14T07:17:41.311Z,16.9
2018-03-14T07:18:31.660Z,16.9
2018-03-14T07:19:21.161Z,16.9
2018-03-14T07:20:12.028Z,16.9
2018-03-14T07:21:01.635Z,16.9
2018-03-14T07:21:52.168Z,16.9
2018-03-14T07:22:42.215Z,16.9
2018-03-14T07:23:31.748Z,16.9
2018-03-14T07:24:21.773Z,16.9
2018-03-14T07:25:11.841Z,16.9
2018-03-14T07:26:02.477Z,16.9
2018-03-14T07:26:52.485Z,16.9
2018-03-14T07:27:41.814Z,16.9
2018-03-14T07:28:32.559Z,16.9
2018-03-14T07:29:22.407Z,16.9
2018-03-14T07:30:11.969Z,16.9
2018-03-14T07:31:02.790Z,16.9
2018-03-14T07:31:52.611Z,16.9
2018-03-14T07:32:42.931Z,16.9
2018-03-14T07:33:32.705Z,16.9
2018-03-14T07:34:23.043Z,16.9
2018-03-14T07:35:12.367Z,16.9
2018-03-14T07:36:03.154Z,16.9
2018-03-14T07:36:53.228Z,16.9
2018-03-14T07:37:42.711Z,16.9
2018-03-14T07:38:33.344Z,16.9
2018-03-14T07:39:22.307Z,16.9
2018-03-14T07:40:12.667Z,16.9
2018-03-14T07:41:02.716Z,16.9
2018-03-14T07:41:52.267Z,16.9
2018-03-14T07:42:42.964Z,16.9
2018-03-14T07:43:32.370Z,16.9
2018-03-14T07:44:23.209Z,15.4
2018-03-14T07:45:12.755Z,14.8
2018-03-14T07:46:02.672Z,14.6
2018-03-14T07:46:52.541Z,17.8
2018-03-14T07:47:42.873Z,19.4
2018-03-14T07:48:32.529Z,19.4
2018-03-14T07:49:23.131Z,18.6
2018-03-14T07:50:12.573Z,17.6
2018-03-14T07:51:03.518Z,17.1
2018-03-14T07:51:53.589Z,17.2
2018-03-14T07:52:43.142Z,17.8
2018-03-14T07:53:33.866Z,18.6
2018-03-14T07:54:22.975Z,19.3
2018-03-14T07:55:14.013Z,19.7
2018-03-14T07:56:02.986Z,19.6
2018-03-14T07:56:53.548Z,19.4
2018-03-14T07:57:43.112Z,19.1
2018-03-14T07:58:33.267Z,18.9
2018-03-14T07:59:24.054Z,18.9
2018-03-14T08:00:14.666Z,18.9
2018-03-14T08:01:03.279Z,19
2018-03-14T08:01:53.366Z,19.1
2018-03-14T08:02:44.120Z,19.1
2018-03-14T08:03:34.405Z,19.2
2018-03-14T08:04:24.361Z,19.2
2018-03-14T08:05:13.833Z,19.2
2018-03-14T08:06:04.831Z,19.2
2018-03-14T08:06:53.776Z,19.3
2018-03-14T08:07:43.845Z,19.3
2018-03-14T08:08:33.604Z,19.3
2018-03-14T08:09:24.612Z,19.3
2018-03-14T08:10:14.680Z,19.2
2018-03-14T08:11:03.880Z,19.1
2018-03-14T08:11:54.701Z,19.1
2018-03-14T08:12:45.234Z,19
2018-03-14T08:13:37.260Z,18.9
2018-03-14T08:14:25.608Z,18.9
2018-03-14T08:15:15.685Z,18.9
2018-03-14T08:16:06.024Z,18.9
2018-03-14T08:16:55.820Z,18.9
2018-03-14T08:17:46.136Z,18.9
2018-03-14T08:18:35.346Z,19
2018-03-14T08:19:26.023Z,19
2018-03-14T08:20:16.096Z,19.1
2018-03-14T08:21:06.396Z,19.1
2018-03-14T08:21:56.157Z,19.1
2018-03-14T08:22:45.637Z,19.1
2018-03-14T08:23:36.265Z,18.9
2018-03-14T08:24:26.050Z,18.9
2018-03-14T08:25:16.140Z,18.9
2018-03-14T08:26:06.872Z,18.9
2018-03-14T08:26:56.497Z,18.9
2018-03-14T08:27:46.830Z,18.9
2018-03-14T08:28:36.649Z,18.9
2018-03-14T08:29:26.752Z,18.9
2018-03-14T08:30:16.531Z,19
2018-03-14T08:31:07.085Z,19
2018-03-14T08:31:56.406Z,19.1
2018-03-14T08:32:46.937Z,19.1
2018-03-14T08:33:37.287Z,19.1
2018-03-14T08:34:26.426Z,19.1
2018-03-14T08:35:16.362Z,19.1
2018-03-14T08:36:07.449Z,19.1
2018-03-14T08:36:57.517Z,19.1
2018-03-14T08:37:47.577Z,19.1
2018-03-14T08:38:37.094Z,19.1
2018-03-14T08:39:26.961Z,19.1
2018-03-14T08:40:17.451Z,19.2
2018-03-14T08:41:07.262Z,19.2
2018-03-14T08:41:57.615Z,19.2
2018-03-14T08:42:47.354Z,19.1
2018-03-14T08:43:37.731Z,19.2
2018-03-14T08:44:28.059Z,19.1
2018-03-14T08:45:17.259Z,19.1
2018-03-14T08:46:08.185Z,19.1
2018-03-14T08:46:58.116Z,19.2
2018-03-14T08:47:47.732Z,19.2
2018-03-14T08:48:37.058Z,19.2
2018-03-14T08:49:28.465Z,19.3
2018-03-14T08:50:18.342Z,19.3
2018-03-14T08:51:08.004Z,19.4
2018-03-14T08:51:57.797Z,19.5
2018-03-14T08:52:48.368Z,19.6
2018-03-14T08:53:38.548Z,19.8
2018-03-14T08:54:28.621Z,20
2018-03-14T08:55:18.820Z,20.3
2018-03-14T08:56:08.619Z,20.4
2018-03-14T08:56:58.136Z,20.6
2018-03-14T08:57:48.770Z,20.8
2018-03-14T08:58:37.926Z,20.9
2018-03-14T08:59:28.956Z,21
2018-03-14T09:01:08.502Z,21.3
2018-03-14T09:01:58.211Z,21.4
2018-03-14T09:02:48.546Z,21.6
2018-03-14T09:03:38.578Z,21.8
2018-03-14T09:04:28.943Z,21.9
2018-03-14T09:05:19.313Z,22.2
2018-03-14T09:06:09.342Z,22.4
2018-03-14T09:06:59.393Z,22.6
2018-03-14T09:07:49.453Z,22.8
2018-03-14T09:08:39.268Z,23.1
2018-03-14T09:09:29.610Z,23.2
2018-03-14T09:10:19.078Z,23.3
2018-03-14T09:11:10.026Z,23.4
2018-03-14T09:12:00.035Z,23.5
2018-03-14T09:12:49.525Z,23.6
2018-03-14T09:13:39.228Z,23.8
2018-03-14T09:14:29.364Z,23.9
2018-03-14T09:15:19.255Z,24.1
2018-03-14T09:16:08.134Z,24.2
2018-03-14T09:16:59.004Z,24.3
2018-03-14T09:17:49.732Z,24.4
2018-03-14T09:18:39.476Z,24.4
2018-03-14T09:19:29.855Z,24.3
2018-03-14T09:20:19.919Z,24.3
2018-03-14T09:21:10.422Z,24.4
2018-03-14T09:21:59.527Z,24.6
2018-03-14T09:22:49.402Z,24.9
2018-03-14T09:23:40.136Z,25.1
2018-03-14T09:24:30.209Z,25.1
2018-03-14T09:25:19.909Z,25.3
2018-03-14T09:26:09.634Z,25.2
2018-03-14T09:27:00.606Z,25.1
2018-03-14T09:27:50.253Z,24.9
2018-03-14T09:28:41.086Z,24.9
2018-03-14T09:29:30.529Z,25.1
2018-03-14T09:30:20.021Z,25.2
2018-03-14T09:31:10.101Z,25.3
2018-03-14T09:32:00.158Z,25.2
2018-03-14T09:32:49.121Z,25.3
2018-03-14T09:33:40.280Z,25.6
2018-03-14T09:34:31.513Z,25.9
2018-03-14T09:35:20.505Z,26.1
2018-03-14T09:36:10.383Z,26.1
2018-03-14T09:37:01.065Z,25.9
2018-03-14T09:37:51.651Z,25.8
2018-03-14T09:38:40.451Z,25.6
2018-03-14T09:39:30.383Z,25.6
2018-03-14T09:40:20.354Z,25.6
2018-03-14T09:41:11.685Z,25.6
2018-03-14T09:42:01.406Z,25.5
2018-03-14T09:42:51.540Z,25.4
2018-03-14T09:43:41.770Z,25.4
2018-03-14T09:44:31.344Z,25.4
2018-03-14T09:45:21.571Z,25.3
2018-03-14T09:46:11.751Z,25.3
2018-03-14T09:47:01.438Z,25.3
2018-03-14T09:47:51.687Z,25.4
2018-03-14T09:48:42.012Z,25.4
2018-03-14T09:49:32.197Z,25.6
2018-03-14T09:50:21.103Z,25.6
2018-03-14T09:51:11.168Z,25.6
2018-03-14T09:52:01.766Z,25.7
2018-03-14T09:52:52.175Z,25.8
2018-03-14T09:53:42.305Z,25.8
2018-03-14T09:54:31.782Z,25.8
2018-03-14T09:55:21.445Z,25.8
2018-03-14T09:56:12.587Z,25.8
2018-03-14T09:57:03.083Z,25.9
2018-03-14T09:57:52.114Z,26
2018-03-14T09:58:42.662Z,26.3
2018-03-14T09:59:31.464Z,26.8
2018-03-14T10:00:22.687Z,27.4
2018-03-14T10:01:13.130Z,27.9
2018-03-14T10:02:02.410Z,28.2
2018-03-14T10:02:52.057Z,28.1
2018-03-14T10:03:43.040Z,28
2018-03-14T10:04:32.403Z,28.1
2018-03-14T10:05:22.469Z,28.3
2018-03-14T10:06:13.737Z,28.5
2018-03-14T10:07:02.369Z,28.6
2018-03-14T10:07:53.141Z,28.6
2018-03-14T10:08:42.909Z,28.7
2018-03-14T10:09:33.367Z,28.9
2018-03-14T10:10:23.099Z,29.4
2018-03-14T10:11:13.866Z,29.8
2018-03-14T10:12:03.836Z,30
2018-03-14T10:12:53.510Z,30.1
2018-03-14T10:13:44.224Z,30.1
2018-03-14T10:14:33.716Z,30.3
2018-03-14T10:15:23.615Z,30.5
2018-03-14T10:16:13.528Z,30.8
2018-03-14T10:17:03.436Z,31.1
2018-03-14T10:17:53.986Z,31.4
2018-03-14T10:18:43.335Z,31.6
2018-03-14T10:19:33.700Z,31.7
2018-03-14T10:20:23.730Z,31.9
2018-03-14T10:21:13.723Z,32
2018-03-14T10:22:03.763Z,32.2
2018-03-14T10:22:53.668Z,32.4
2018-03-14T10:23:43.693Z,32.6
2018-03-14T10:24:34.723Z,32.7
2018-03-14T10:25:23.892Z,32.8
2018-03-14T10:26:14.667Z,32.6
2018-03-14T10:27:03.865Z,32.1
2018-03-14T10:27:54.377Z,31.6
2018-03-14T10:28:44.773Z,31.3
2018-03-14T10:29:34.799Z,31
2018-03-14T10:30:24.654Z,30.8
2018-03-14T10:31:14.950Z,30.7
2018-03-14T10:32:05.302Z,30.5
2018-03-14T10:32:55.176Z,30.4
2018-03-14T10:33:44.436Z,30.7
2018-03-14T10:34:34.397Z,30.9
2018-03-14T10:35:25.645Z,31.1
2018-03-14T10:36:14.621Z,31.4
2018-03-14T10:37:05.738Z,31.8
2018-03-14T10:37:55.033Z,32.2
2018-03-14T10:38:46.095Z,32.3
2018-03-14T10:39:35.424Z,32
2018-03-14T10:40:24.297Z,31.7
2018-03-14T10:41:16.046Z,31.4
2018-03-14T10:42:05.112Z,31.2
2018-03-14T10:42:55.481Z,31.1
2018-03-14T10:43:44.975Z,31.2
2018-03-14T10:44:36.188Z,31.6
2018-03-14T10:45:25.964Z,32.1
2018-03-14T10:46:15.121Z,32.6
2018-03-14T10:47:05.612Z,32.9
2018-03-14T10:47:55.979Z,33
2018-03-14T10:48:45.620Z,33
2018-03-14T10:49:36.092Z,32.7
2018-03-14T10:50:25.648Z,32.4
2018-03-14T10:51:16.244Z,32.2
2018-03-14T10:52:06.253Z,32.4
2018-03-14T10:52:56.884Z,32.8
2018-03-14T10:53:45.488Z,33.1
2018-03-14T10:54:37.232Z,33.4
2018-03-14T10:55:26.287Z,33.3
2018-03-14T10:56:16.549Z,33.1
2018-03-14T10:57:05.743Z,32.8
2018-03-14T10:57:56.585Z,32.8
2018-03-14T10:58:47.448Z,33.2
2018-03-14T10:59:36.693Z,33.8
2018-03-14T11:00:27.117Z,34.1
2018-03-14T11:01:16.745Z,34.1
2018-03-14T11:02:07.250Z,33.8
2018-03-14T11:02:56.838Z,33.6
2018-03-14T11:03:46.718Z,33.5
2018-03-14T11:04:37.248Z,33.8
2018-03-14T11:05:27.438Z,34.3
2018-03-14T11:06:16.818Z,34.8
2018-03-14T11:07:07.138Z,34.8
2018-03-14T11:07:57.961Z,34.5